^^

Nearby METAR Reports

 

LIRH - Frosinone (it-Af, Italy
Distance from station: SO 5km
Dati ricevuti: 25/10/2021 13:55
Few Clouds
Few Clouds
 Vento da SSE
Vento: SSE 9 km/h
Temperatura: 20°C
P.to Rugiada: 10°C
Umidità: 53%
Barometro: 1018 hPa
Clouds: Few Clouds
Visibility: 10 km
Cloud details: Few Clouds 1067 m
2021/10/25 11:55 LIRH 251155Z 15005KT 9999 FEW035 20/10 Q1018
LIRL - Latina (it-Afb), Italy
Distance from station: OSO 40km
Dati ricevuti: 25/10/2021 13:55
Parz. nuvoloso
Parz. nuvoloso
 Vento da ONO
Vento: ONO 7 km/h
Temperatura: 23°C
P.to Rugiada: 12°C
Umidità: 50%
Barometro: 1018 hPa
Clouds: Parz. nuvoloso
Visibility: 10 km
Cloud details: Parz. nuvoloso 2134 m
2021/10/25 11:55 LIRL 251155Z 29004KT 9999 SCT070 23/12 Q1018
 
LIRG - Guidonia (it-Afb, Italy
Distance from station: NO 63km
Dati ricevuti: 25/10/2021 13:55
Sereno
Sereno
 Vento da ONO
Vento: ONO 13 km/h
Temperatura: 21°C
P.to Rugiada: 8°C
Umidità: 43%
Barometro: 1019 hPa
Summary: Sereno
Visibility: greater than 10 km
2021/10/25 11:55 LIRG 251155Z 29007KT CAVOK 21/08 Q1019
LIRA - Ciampino(It-Afb/, Italy
Distance from station: ONO 64km
Dati ricevuti: 25/10/2021 14:20
Sereno
Sereno
 Vento da NNO
Vento: NNO 9 km/h
Temperatura: 21°C
P.to Rugiada: 9°C
Umidità: 46%
Barometro: 1018 hPa
Summary: Sereno
Visibility: greater than 10 km
2021/10/25 12:20 LIRA 251220Z 33005KT 280V010 CAVOK 21/09 Q1018
 
LIRU - Roma/Urbe (it-Af, Italy
Distance from station: ONO 76km
Dati ricevuti: 25/10/2021 13:50
Sereno
Sereno
 Vento da N
Vento: N 9 km/h
Temperatura: 20°C
P.to Rugiada: 9°C
Umidità: 49%
Barometro: 1018 hPa
Summary: Sereno
Visibility: greater than 10 km
2021/10/25 11:50 LIRU 251150Z 35005KT 310V030 CAVOK 20/09 Q1018
LIRE - Pratica Di Mare(, Italy
Distance from station: O 77km
Dati ricevuti: 25/10/2021 13:55
Parz. nuvoloso
Parz. nuvoloso
 Vento da OSO
Vento: OSO 9 km/h
Temperatura: 20°C
P.to Rugiada: 12°C
Umidità: 60%
Barometro: 1018 hPa
Clouds: Parz. nuvoloso
Visibility: 10 km
Cloud details: Parz. nuvoloso 1219 m
2021/10/25 11:55 LIRE 251155Z 25005KT 9999 SCT040 20/12 Q1018 RMK BKN BKN100 VIS MIN 9999 WIND THR13 29005KT WIND THR31 /////KT BLU
 
LIQN - Rieti, Italy
Distance from station: NNO 92km
Dati ricevuti: 25/10/2021 13:50
Sereno
Sereno
 Vento da NO
Vento: NO 7 km/h
Temperatura: 19°C
P.to Rugiada: 7°C
Umidità: 46%
Barometro: 1019 hPa
Summary: Sereno
Visibility: greater than 10 km
2021/10/25 11:50 LIQN 251150Z 32004KT 270V010 CAVOK 19/07 Q1019
LIRK - Terminillo, Italy
Distance from station: NNO 93km
Dati ricevuti: 25/10/2021 13:55

 Vento da SE
Vento: SE 28 km/h
Temperatura: 7°C
Temperatura del Vento: 3°C
P.to Rugiada: 4°C
Umidità: 81%
Barometro: 1023 hPa
2021/10/25 11:55 LIRK 251155Z AUTO 14015KT //// 07/04 Q1023
 
LIRF - Roma/Fiumicino, Italy
Distance from station: O 94km
Dati ricevuti: 25/10/2021 14:20
Sereno
Sereno
 Vento da varies
Vento: varies 6 km/h
Temperatura: 21°C
P.to Rugiada: 9°C
Umidità: 46%
Barometro: 1018 hPa
Summary: Sereno
Visibility: greater than 10 km
2021/10/25 12:20 LIRF 251220Z VRB03KT CAVOK 21/09 Q1018 NOSIG
LIRM - Grazzanise (it-A, Italy
Distance from station: SE 94km
Dati ricevuti: 25/10/2021 13:55
Parz. nuvoloso
Parz. nuvoloso
 Vento da varies
Vento: varies 0 km/h
Temperatura: 19°C
P.to Rugiada: 11°C
Umidità: 60%
Barometro: 1019 hPa
Clouds: Parz. nuvoloso
Visibility: 10 km
Cloud details: Parz. nuvoloso 914 m
Parz. nuvoloso 2134 m
2021/10/25 11:55 LIRM 251155Z /////KT 9999 SCT030 SCT070 19/11 Q1019
 
LIBP - Pescara, Italy
Distance from station: NE 108km
Dati ricevuti: 25/10/2021 14:20
Few Clouds
Few Clouds
 Vento da NE
Vento: NE 13 km/h
Temperatura: 17°C
P.to Rugiada: 10°C
Umidità: 64%
Barometro: 1022 hPa
Clouds: Few Clouds
Visibility: 10 km
Cloud details: Few Clouds 1676 m
2021/10/25 12:20 LIBP 251220Z AUTO 04007KT 9999 FEW055/// 17/10 Q1022
LIRN - Napoli/Capodichino, Italy
Distance from station: SE 120km
Dati ricevuti: 25/10/2021 14:20
Parz. nuvoloso
Parz. nuvoloso
 Vento da E
Vento: E 13 km/h
Temperatura: 18°C
P.to Rugiada: 11°C
Umidità: 64%
Barometro: 1018 hPa
Clouds: Parz. nuvoloso
Visibility: 10 km
Cloud details: Parz. nuvoloso 2134 m
2021/10/25 12:20 LIRN 251220Z 08007KT 9999 SCT070 18/11 Q1018 NOSIG
 
LIRV - Viterbo (it-Mil), Italy
Distance from station: NO 133km
Dati ricevuti: 25/10/2021 13:55
Sereno
Sereno
 Vento da NE
Vento: NE 19 km/h
Temperatura: 16°C
P.to Rugiada: 4°C
Umidità: 45%
Barometro: 1020 hPa
Summary: Sereno
Visibility: greater than 10 km
2021/10/25 11:55 LIRV 251155Z 05010KT CAVOK 16/04 Q1020
LIQC - Capri, Italy
Distance from station: SSE 145km
Dati ricevuti: 25/10/2021 12:55
Non Attivo
Molto nuvoloso
Molto nuvoloso
 Vento da ENE
Vento: ENE 7 km/h
Temperatura: 20°C
P.to Rugiada: 14°C
Umidità: 69%
Barometro: 1017 hPa
Clouds: Molto nuvoloso
Visibility: 10 km
Cloud details: Molto nuvoloso 914 m
2021/10/25 10:55 LIQC 251055Z 06004KT 9999 BKN030 20/14 Q1017 RMK BKN QUK 3 QUL 2 NE VIS MAR 15 KM VIS MIN 9999
 
LIRT - Trevico, Italy
Distance from station: ESE 172km
Dati ricevuti: 25/10/2021 13:55
Nebbia
Nebbia
 Vento da E
Vento: E 24 km/h
Temperatura: 7°C
Temperatura del Vento: 3°C
P.to Rugiada: 5°C
Umidità: 87%
Barometro: 1020 hPa
Summary: Nebbia
Visibility: 0 km
2021/10/25 11:55 LIRT 251155Z 09013KT 0000 FG VV/// 07/05 Q1020 RMK MON INVIS VAL INVIS VIS MIN 0000
LIRZ - Perugia, Italy
Distance from station: NNO 172km
Dati ricevuti: 25/10/2021 14:20
Sereno
Sereno
 Vento da ENE
Vento: ENE 13 km/h
Temperatura: 19°C
P.to Rugiada: 7°C
Umidità: 46%
Barometro: 1020 hPa
Clouds: Sereno
Visibility: 10 km
2021/10/25 12:20 LIRZ 251220Z AUTO 06007KT 9999 NCD 19/07 Q1020
 
LIRI - Pontecagnano (af, Italy
Distance from station: SE 177km
Dati ricevuti: 25/10/2021 13:50
Parz. nuvoloso
Parz. nuvoloso
 Vento da E
Vento: E 11 km/h
Temperatura: 20°C
P.to Rugiada: 12°C
Umidità: 60%
Barometro: 1018 hPa
Clouds: Parz. nuvoloso
Visibility: 10 km
Cloud details: Parz. nuvoloso 1524 m
2021/10/25 11:50 LIRI 251150Z 08006KT 9999 SCT050 20/12 Q1018
LIBF - Foggia/Gino Lisa, Italy
Distance from station: E 183km
Dati ricevuti: 25/10/2021 13:50
Molto nuvoloso
Molto nuvoloso
 Vento da E
Vento: E 11 km/h
Temperatura: 18°C
P.to Rugiada: 12°C
Umidità: 68%
Barometro: 1022 hPa
Clouds: Molto nuvoloso
Visibility: 10 km
Cloud details: Parz. nuvoloso 914 m
Molto nuvoloso 1829 m
2021/10/25 11:50 LIBF 251150Z 08006KT 040V110 9999 SCT030 BKN060 18/12 Q1022
 
LIQO - Monte Argentario, Italy
Distance from station: ONO 195km
Dati ricevuti: 24/10/2021 11:55
Non Attivo
Sereno
Sereno
 Vento da NE
Vento: NE 11 km/h
Temperatura: 16°C
P.to Rugiada: 6°C
Umidità: 52%
Barometro: 1022 hPa
Summary: Sereno
Visibility: greater than 10 km
2021/10/24 09:55 LIQO 240955Z 04006KT CAVOK 16/06 Q1022
LIBA - Amendola (it-Afb, Italy
Distance from station: E 198km
Dati ricevuti: 25/10/2021 13:55
Molto nuvoloso
Molto nuvoloso
 Vento da E
Vento: E 20 km/h
Temperatura: 19°C
P.to Rugiada: 11°C
Umidità: 60%
Barometro: 1021 hPa
Clouds: Molto nuvoloso
Visibility: 10 km
Cloud details: Parz. nuvoloso 914 m
Molto nuvoloso 1372 m
2021/10/25 11:55 LIBA 251155Z 09011KT 9999 SCT030 BKN045 19/11 Q1021 RMK BKN VIS MIN 9999 WIND THR11 08012KT WIND THR29 /////KT BLU
 
LIBN - Lecce (it-Afb), Italy
Dati ricevuti: 25/10/2021 13:55
Few Clouds
Few Clouds
 Vento da E
Vento: E 17 km/h
Temperatura: 22°C
P.to Rugiada: 14°C
Umidità: 61%
Barometro: 1020 hPa
Clouds: Few Clouds
Visibility: 10 km
Cloud details: Few Clouds 914 m
2021/10/25 11:55 LIBN 251155Z 10009KT 9999 FEW030 22/14 Q1020 RMK BKN SCT060 VIS MIN 9999 WIND THR14 12008KT WIND THR32 11008KT BLU
LIPY - Ancona-Falconara, Italy
Dati ricevuti: 25/10/2021 14:20

 Vento da NNO
Vento: NNO 17 km/h
Temperatura: 15°C
P.to Rugiada: 12°C
Umidità: 82%
Barometro: 1022 hPa
Visibility: 10 km
2021/10/25 12:20 LIPY 251220Z AUTO 33009KT 9999 ///////// 15/12 Q1022
 
LICJ - Palermo-Punta Raisi, Italy
Dati ricevuti: 25/10/2021 14:20
Molto nuvoloso
Molto nuvoloso
 Vento da NE
Vento: NE 20 km/h
Temperatura: 21°C
P.to Rugiada: 17°C
Umidità: 78%
Barometro: 1013 hPa
Clouds: Molto nuvoloso
Visibility: 10 km
Cloud details: Molto nuvoloso 2225 m
2021/10/25 12:20 LICJ 251220Z AUTO 05011KT 9999 BKN073/// 21/17 Q1013
LIEB - Capo Bellavista, Italy
Dati ricevuti: 25/10/2021 13:55
Molto nuvoloso
Molto nuvoloso
 Vento da NE
Vento: NE 33 km/h
Temperatura: 18°C
P.to Rugiada: 14°C
Umidità: 78%
Barometro: 1018 hPa
Clouds: Molto nuvoloso
Visibility: 10 km
Cloud details: Parz. nuvoloso 610 m
Molto nuvoloso 914 m
2021/10/25 11:55 LIEB 251155Z 04018KT 9999 SCT020 BKN030 18/14 Q1018 RMK OVC QUK 4 QUL 3 E VIS MAR 25 KM MON CIME INC NC VIS MIN 9999
 
LIEC - Capo Carbonara, Italy
Dati ricevuti: 25/10/2021 13:55
Molto nuvoloso
Molto nuvoloso
 Vento da NNE
Vento: NNE 46 km/h, Raffica: 67 km/h
Temperatura: 21°C
P.to Rugiada: 16°C
Umidità: 73%
Barometro: 1016 hPa
Clouds: Molto nuvoloso
Visibility: 10 km
Cloud details: Molto nuvoloso 610 m
2021/10/25 11:55 LIEC 251155Z 03025G36KT 9999 BKN020 21/16 Q1016 RMK BKN SCT060 QUK 5 QUL 0 VIS MAR 14 KM VIS MIN 9999
LIED - Cagliari-Decimomannu(It-A, Italy
Dati ricevuti: 25/10/2021 13:55
Molto nuvoloso
Molto nuvoloso
 Vento da ENE
Vento: ENE 11 km/h
Temperatura: 22°C
P.to Rugiada: 16°C
Umidità: 69%
Barometro: 1017 hPa
Clouds: Molto nuvoloso
Visibility: 10 km
Cloud details: Few Clouds 762 m
Parz. nuvoloso 1219 m
Molto nuvoloso 1829 m
2021/10/25 11:55 LIED 251155Z 06006KT 9999 FEW025 SCT040 BKN060 22/16 Q1017 RMK BKN VIS MIN 9999 WIND THR35 04006KT WIND THR17 06005KT BLU
 
LIEE - Cagliari-Elmas(A, Italy
Dati ricevuti: 25/10/2021 14:20
Few Clouds
Few Clouds
 Vento da E
Vento: E 6 km/h
Temperatura: 22°C
P.to Rugiada: 13°C
Umidità: 57%
Barometro: 1017 hPa
Clouds: Few Clouds
Visibility: 10 km
Cloud details: Few Clouds 1524 m
2021/10/25 12:20 LIEE 251220Z 09003KT 060V130 9999 FEW050 22/13 Q1017
LIEO - Olbia-Costa Smeralda, Italy
Dati ricevuti: 25/10/2021 14:20
Parz. nuvoloso
Parz. nuvoloso
 Vento da NNE
Vento: NNE 7 km/h
Temperatura: 20°C
P.to Rugiada: 12°C
Umidità: 60%
Barometro: 1019 hPa
Clouds: Parz. nuvoloso
Visibility: 10 km
Cloud details: Parz. nuvoloso 914 m
2021/10/25 12:20 LIEO 251220Z 03004KT 340V100 9999 SCT030 20/12 Q1019
 
LIEA - Alghero, Italy
Dati ricevuti: 25/10/2021 14:20
Sereno
Sereno
 Vento da NNE
Vento: NNE 20 km/h
Temperatura: 23°C
P.to Rugiada: 12°C
Umidità: 50%
Barometro: 1018 hPa
Summary: Sereno
Visibility: greater than 10 km
2021/10/25 12:20 LIEA 251220Z 02011KT 340V050 CAVOK 23/12 Q1018
LICA - Catanzaro-Lamezia Terme, Italy
Dati ricevuti: 25/10/2021 14:20
Parz. nuvoloso
Parz. nuvoloso
 Vento da E
Vento: E 33 km/h
Temperatura: 20°C
P.to Rugiada: 17°C
Umidità: 83%
Barometro: 1015 hPa
Clouds: Parz. nuvoloso
Visibility: 10 km
Cloud details: Few Clouds 305 m
Parz. nuvoloso 610 m
2021/10/25 12:20 LICA 251220Z 08018KT 9999 FEW010 SCT020 20/17 Q1015
 
LIBQ - Cosenza-Monte Scuro, Italy
Dati ricevuti: 25/10/2021 13:55
Pioviggine, Nebbia
Pioviggine, Nebbia
 Vento da E
Vento: E 17 km/h, Raffica: 35 km/h
Temperatura: 10°C
Temperatura del Vento: 8°C
P.to Rugiada: 10°C
Umidità: 100%
Barometro: 1020 hPa
Summary: Pioviggine, Nebbia
Visibility: 0 km
2021/10/25 11:55 LIBQ 251155Z 08009G19KT 030V140 0000 -RA FG VV/// 10/10 Q1020 RMK MON INVIS VAL INVIS VIS MIN 0000
LICR - Reggio Calabria, Italy
Dati ricevuti: 25/10/2021 14:20
Parz. nuvoloso
Parz. nuvoloso
 Vento da NE
Vento: NE 11 km/h
Temperatura: 20°C
P.to Rugiada: 16°C
Umidità: 78%
Barometro: 1015 hPa
Clouds: Parz. nuvoloso
Visibility: 10 km
Cloud details: Parz. nuvoloso 3048 m
2021/10/25 12:20 LICR 251220Z AUTO 05006KT 9999 SCT100/// 20/16 Q1015
 
LIBV - Bari-Gioia Del Colle, Italy
Dati ricevuti: 25/10/2021 13:55
Parz. nuvoloso
Parz. nuvoloso
 Vento da SSO
Vento: SSO 7 km/h
Temperatura: 18°C
P.to Rugiada: 13°C
Umidità: 73%
Barometro: 1020 hPa
Clouds: Parz. nuvoloso
Visibility: 10 km
Cloud details: Few Clouds 549 m
Parz. nuvoloso 1372 m
2021/10/25 11:55 LIBV 251155Z 21004KT 100V260 9999 FEW018 SCT045 18/13 Q1020 RMK OVC VIS MIN 9999 WIND THR32 24009KT WIND THR14 21004KT BLU
LIBD - Bari-Palese Macchie, Italy
Dati ricevuti: 25/10/2021 14:20
Parz. nuvoloso
Parz. nuvoloso
 Vento da ENE
Vento: ENE 17 km/h
Temperatura: 19°C
P.to Rugiada: 13°C
Umidità: 68%
Barometro: 1021 hPa
Clouds: Parz. nuvoloso
Visibility: 10 km
Cloud details: Few Clouds 610 m
Parz. nuvoloso 1067 m
2021/10/25 12:20 LIBD 251220Z 07009KT 9999 FEW020 SCT035 19/13 Q1021
 
LIBR - Brindisi-Casale, Italy
Dati ricevuti: 25/10/2021 14:20
Few Clouds
Few Clouds
 Vento da E
Vento: E 17 km/h
Temperatura: 20°C
P.to Rugiada: 15°C
Umidità: 73%
Barometro: 1020 hPa
Clouds: Few Clouds
Visibility: 10 km
Cloud details: Few Clouds 762 m
2021/10/25 12:20 LIBR 251220Z 09009KT 9999 FEW025 20/15 Q1020
LIRT - Trevico, Italy
Dati ricevuti: 25/10/2021 13:55
Nebbia
Nebbia
 Vento da E
Vento: E 24 km/h
Temperatura: 7°C
Temperatura del Vento: 3°C
P.to Rugiada: 5°C
Umidità: 87%
Barometro: 1020 hPa
Summary: Nebbia
Visibility: 0 km
2021/10/25 11:55 LIRT 251155Z 09013KT 0000 FG VV/// 07/05 Q1020 RMK MON INVIS VAL INVIS VIS MIN 0000
 
LICB - Comiso, Italy
Dati ricevuti: 25/10/2021 14:20
Molto nuvoloso
Molto nuvoloso
 Vento da ESE
Vento: ESE 11 km/h
Temperatura: 22°C
P.to Rugiada: 15°C
Umidità: 65%
Barometro: 1013 hPa
Clouds: Molto nuvoloso
Visibility: 10 km
Cloud details: Parz. nuvoloso 945 m
Molto nuvoloso 1494 m
Molto nuvoloso 3048 m
2021/10/25 12:20 LICB 251220Z AUTO 11006KT 050V160 9999 SCT031/// BKN049/// BKN100/// 22/15 Q1013
LICL - Gela, Italy
Dati ricevuti: 25/10/2021 13:55
Light thunderstorm, Pioggia, Nuvoloso
Light thunderstorm, Pioggia, Nuvoloso
 Vento da E
Vento: E 11 km/h
Temperatura: 18°C
P.to Rugiada: 15°C
Umidità: 83%
Barometro: 1013 hPa
Summary: Light thunderstorm, Pioggia
Clouds: Molto nuvoloso
Visibility: 8 km
Cloud details: Few Clouds 701 m
Molto nuvoloso 762 m
2021/10/25 11:55 LICL 251155Z 08006KT 020V110 8000 -TSRA FEW023CB BKN025 18/15 Q1013 RMK OVC OVC070 QUK 2 QUL 0 VIS MAR 8 KM VAL 10 VIS MIN 8000
 
LIBN - Lecce (it-Afb), Italy
Dati ricevuti: 25/10/2021 13:55
Few Clouds
Few Clouds
 Vento da E
Vento: E 17 km/h
Temperatura: 22°C
P.to Rugiada: 14°C
Umidità: 61%
Barometro: 1020 hPa
Clouds: Few Clouds
Visibility: 10 km
Cloud details: Few Clouds 914 m
2021/10/25 11:55 LIBN 251155Z 10009KT 9999 FEW030 22/14 Q1020 RMK BKN SCT060 VIS MIN 9999 WIND THR14 12008KT WIND THR32 11008KT BLU
LICJ - Palermo-Punta Raisi, Italy
Dati ricevuti: 25/10/2021 14:20
Molto nuvoloso
Molto nuvoloso
 Vento da NE
Vento: NE 20 km/h
Temperatura: 21°C
P.to Rugiada: 17°C
Umidità: 78%
Barometro: 1013 hPa
Clouds: Molto nuvoloso
Visibility: 10 km
Cloud details: Molto nuvoloso 2225 m
2021/10/25 12:20 LICJ 251220Z AUTO 05011KT 9999 BKN073/// 21/17 Q1013
 
LICZ - Catania-Sigonella (nas), Italy
Dati ricevuti: 25/10/2021 13:55
Light thunderstorm, Pioggia, Nuvoloso
Light thunderstorm, Pioggia, Nuvoloso
 Vento da NO
Vento: NO 9 km/h
Temperatura: 19°C
P.to Rugiada: 19°C
Umidità: 100%
Barometro: 1013 hPa
Summary: Light thunderstorm, Pioggia
Clouds: Molto nuvoloso
Visibility: 7 km
Cloud details: Few Clouds 762 m
Parz. nuvoloso 914 m
Molto nuvoloso 2134 m
2021/10/25 11:55 LICZ 251155Z 32005KT 7000 -TSRA FEW025CB SCT030 BKN070 19/19 Q1013 RMK BKN VIS MIN 7000 WIND THR28 31005KT WIND THR10 34006KT A2992 WHT
LICC - Catania-Fontanarossa, Italy
Dati ricevuti: 25/10/2021 14:20
Forte temporale, Pioggia, Nuvoloso
Forte temporale, Pioggia, Nuvoloso
 Vento da varies
Vento: varies 17 km/h, Raffica: 52 km/h
Temperatura: 18°C
P.to Rugiada: 17°C
Umidità: 94%
Barometro: 1013 hPa
Summary: Forte temporale, Pioggia
Clouds: Molto nuvoloso
Visibility: 2 km
Cloud details: Few Clouds 305 m
Parz. nuvoloso 610 m
Molto nuvoloso 1219 m
2021/10/25 12:20 LICC 251220Z VRB09G28KT 1500 +TSRA FEW010CB SCT020 BKN040 18/17 Q1013
 
LICT - Trapani-Birgi (a, Italy
Dati ricevuti: 25/10/2021 13:55
Parz. nuvoloso
Parz. nuvoloso
 Vento da NNO
Vento: NNO 15 km/h
Temperatura: 24°C
P.to Rugiada: 18°C
Umidità: 69%
Barometro: 1013 hPa
Clouds: Parz. nuvoloso
Visibility: 10 km
Cloud details: Parz. nuvoloso 610 m
2021/10/25 11:55 LICT 251155Z 33008KT 9999 SCT020 24/18 Q1013
LICD - Agrigento-Lampedusa, Italy
Dati ricevuti: 25/10/2021 14:20
Few Clouds
Few Clouds
 Vento da NE
Vento: NE 37 km/h
Temperatura: 23°C
P.to Rugiada: 19°C
Umidità: 78%
Barometro: 1008 hPa
Clouds: Few Clouds
Visibility: 10 km
Cloud details: Few Clouds 488 m
2021/10/25 12:20 LICD 251220Z AUTO 04020KT 9999 FEW016/// 23/19 Q1008
 
LICG - Pantelleria(It-A, Italy
Dati ricevuti: 25/10/2021 13:50
Few Clouds
Few Clouds
 Vento da ENE
Vento: ENE 19 km/h
Temperatura: 19°C
P.to Rugiada: 16°C
Umidità: 83%
Barometro: 1013 hPa
Clouds: Few Clouds
Visibility: 10 km
Cloud details: Few Clouds 457 m
2021/10/25 11:50 LICG 251150Z 06010KT 9999 FEW015 19/16 Q1013
LIPX - Villafranca(Cv/M, Italy
Dati ricevuti: 25/10/2021 14:20
Sereno
Sereno
 Vento da ESE
Vento: ESE 7 km/h
Temperatura: 14°C
P.to Rugiada: 1°C
Umidità: 41%
Barometro: 1024 hPa
Summary: Sereno
Visibility: greater than 10 km
2021/10/25 12:20 LIPX 251220Z 11004KT 060V160 CAVOK 14/01 Q1024
 
LIPO - Brescia/Montichiari, Italy
Dati ricevuti: 25/10/2021 14:20
Molto nuvoloso
Molto nuvoloso
 Vento da SE
Vento: SE 6 km/h
Temperatura: 15°C
P.to Rugiada: 8°C
Umidità: 63%
Barometro: 1023 hPa
Clouds: Molto nuvoloso
Visibility: 10 km
Cloud details: Molto nuvoloso 6096 m
2021/10/25 12:20 LIPO 251220Z AUTO 14003KT 090V200 9999 BKN200/// 15/08 Q1023
LIPL - Ghedi (it-Afb), Italy
Dati ricevuti: 25/10/2021 13:55
Sereno
Sereno
 Vento da ONO
Vento: ONO 4 km/h
Temperatura: 14°C
P.to Rugiada: 7°C
Umidità: 63%
Barometro: 1023 hPa
Summary: Sereno
Visibility: greater than 10 km
2021/10/25 11:55 LIPL 251155Z 30002KT CAVOK 14/07 Q1023 RMK BKN FEW090 SCT200 VIS MIN 9999 WIND THR31 21001KT WIND THR13 01002KT BLU
 
LIMP - Parma, Italy
Dati ricevuti: 25/10/2021 13:50
Parz. nuvoloso
Parz. nuvoloso
 Vento da E
Vento: E 11 km/h
Temperatura: 14°C
P.to Rugiada: 6°C
Umidità: 59%
Barometro: 1024 hPa
Clouds: Parz. nuvoloso
Visibility: 10 km
Cloud details: Parz. nuvoloso 1829 m
2021/10/25 11:50 LIMP 251150Z 09006KT 060V120 9999 SCT060 14/06 Q1024
LIMS - Piacenza (it-Afb, Italy
Dati ricevuti: 25/10/2021 13:55
Sereno
Sereno
 Vento da ENE
Vento: ENE 11 km/h
Temperatura: 14°C
P.to Rugiada: 6°C
Umidità: 59%
Barometro: 1023 hPa
Summary: Sereno
Visibility: greater than 10 km
2021/10/25 11:55 LIMS 251155Z 07006KT 030V110 CAVOK 14/06 Q1023
 
LIPF - Ferrara (aut), Italy
Dati ricevuti: 25/10/2021 13:55
Parz. nuvoloso
Parz. nuvoloso
 Vento da varies
Vento: varies 0 km/h
Temperatura: 16°C
P.to Rugiada: 6°C
Umidità: 52%
Barometro: 1020 hPa
Clouds: Parz. nuvoloso
Visibility: 10 km
Cloud details: Parz. nuvoloso 2134 m
2021/10/25 11:55 LIPF 251155Z /////KT 9999 SCT070 16/06 Q1020
LIPE - Bologna/Borgo (a, Italy
Dati ricevuti: 25/10/2021 14:20
Parz. nuvoloso
Parz. nuvoloso
 Vento da varies
Vento: varies 6 km/h
Temperatura: 14°C
P.to Rugiada: 6°C
Umidità: 59%
Barometro: 1023 hPa
Clouds: Parz. nuvoloso
Visibility: 10 km
Cloud details: Parz. nuvoloso 1219 m
2021/10/25 12:20 LIPE 251220Z VRB03KT 9999 SCT040 14/06 Q1023
 
LIPU - Padova (civ/It-A, Italy
Dati ricevuti: 24/10/2021 08:00
Non Attivo
Sereno
Sereno
 Vento da varies
Vento: varies 4 km/h
Temperatura: 7°C
P.to Rugiada: 5°C
Umidità: 87%
Barometro: 1029 hPa
Summary: Sereno
Visibility: greater than 10 km
2021/10/24 06:00 LIPU 240600Z VRB02KT CAVOK 07/05 Q1029
LIME - Bergamo/Orio Ser, Italy
Dati ricevuti: 25/10/2021 14:20
Parz. nuvoloso
Parz. nuvoloso
 Vento da OSO
Vento: OSO 7 km/h
Temperatura: 13°C
P.to Rugiada: 6°C
Umidità: 63%
Barometro: 1023 hPa
Clouds: Parz. nuvoloso
Visibility: 10 km
Cloud details: Parz. nuvoloso 3048 m
2021/10/25 12:20 LIME 251220Z 25004KT 170V290 9999 SCT100 13/06 Q1023 NOSIG
 
LIMT - Cisa Pass, Italy
Dati ricevuti: 23/09/2019 13:55
Non Attivo
Nebbia
Nebbia
 Vento da calm
Vento: Calma
Temperatura: 10°C
P.to Rugiada: 10°C
Umidità: 100%
Barometro: 1014 hPa
Summary: Nebbia
Visibility: 0 km
2019/09/23 11:55 LIMT 231155Z 00000KT 0000 FG VV/// 10/10 Q1014 RMK MON INVIS VAL INVIS VIS MIN 0000
LIVC - Cimone Mountain, Italy
Dati ricevuti: 25/10/2021 13:55

 Vento da S
Vento: S 9 km/h
Temperatura: 8°C
Temperatura del Vento: 6°C
P.to Rugiada: -16°C
Umidità: 17%
Barometro: 1024 hPa
2021/10/25 11:55 LIVC 251155Z AUTO 19005KT //// 08/M16 Q1024
 
LIVP - Paganella Mounta, Italy
Dati ricevuti: 25/10/2021 11:55
Non Attivo
Sereno
Sereno
 Vento da SSE
Vento: SSE 13 km/h
Temperatura: 8°C
Temperatura del Vento: 6°C
P.to Rugiada: -14°C
Umidità: 20%
Barometro: 1025 hPa
Summary: Sereno
Visibility: greater than 10 km
2021/10/25 09:55 LIVP 250955Z 16007KT CAVOK 08/M14 Q1025 RMK BKN BKN080 SCT090 MON LIB VAL S FOSCHIA SKC SUP VIS MIN 9999
LIML - Milano/Linate, Italy
Dati ricevuti: 25/10/2021 14:20
Parz. nuvoloso
Parz. nuvoloso
 Vento da SSE
Vento: SSE 6 km/h
Temperatura: 14°C
P.to Rugiada: 4°C
Umidità: 51%
Barometro: 1024 hPa
Clouds: Parz. nuvoloso
Visibility: 8 km
Cloud details: Parz. nuvoloso 2438 m
2021/10/25 12:20 LIML 251220Z 15003KT 090V190 8000 SCT080 14/04 Q1024 NOSIG
 
LIPS - Istrana (it-Afb), Italy
Dati ricevuti: 25/10/2021 13:55
Sereno
Sereno
 Vento da ENE
Vento: ENE 13 km/h
Temperatura: 16°C
P.to Rugiada: 3°C
Umidità: 42%
Barometro: 1024 hPa
Summary: Sereno
Visibility: greater than 10 km
2021/10/25 11:55 LIPS 251155Z 06007KT CAVOK 16/03 Q1024 RMK BKN BKN190 VIS MIN 9999 WIND THR26 05006KT WIND THR08 07008KT BLK BLU
LIPH - Treviso(Civ/It-A, Italy
Dati ricevuti: 25/10/2021 14:20
Sereno
Sereno
 Vento da ENE
Vento: ENE 9 km/h
Temperatura: 16°C
P.to Rugiada: 1°C
Umidità: 36%
Barometro: 1024 hPa
Summary: Sereno
Visibility: greater than 10 km
2021/10/25 12:20 LIPH 251220Z 07005KT 020V110 CAVOK 16/01 Q1024
 
LIPZ - Venezia/Tessera, Italy
Dati ricevuti: 25/10/2021 14:20
Sereno
Sereno
 Vento da ENE
Vento: ENE 15 km/h
Temperatura: 15°C
P.to Rugiada: 3°C
Umidità: 45%
Barometro: 1023 hPa
Summary: Sereno
Visibility: greater than 10 km
2021/10/25 12:20 LIPZ 251220Z 07008KT CAVOK 15/03 Q1023 NOSIG
LIQW - Sarzana/Luni, Italy
Dati ricevuti: 25/10/2021 13:55
Sereno
Sereno
 Vento da varies
Vento: varies 0 km/h
Temperatura: 18°C
P.to Rugiada: 5°C
Umidità: 43%
Barometro: 1020 hPa
Summary: Sereno
Visibility: greater than 10 km
2021/10/25 11:55 LIQW 251155Z /////KT CAVOK 18/05 Q1020
 
LIVR - Rolle Pass, Italy
Dati ricevuti: 25/10/2021 13:55
Sereno
Sereno
 Vento da SSE
Vento: SSE 11 km/h
Temperatura: 7°C
Temperatura del Vento: 5°C
P.to Rugiada: -12°C
Umidità: 25%
Barometro: 1025 hPa
Summary: Sereno
Visibility: greater than 10 km
2021/10/25 11:55 LIVR 251155Z 15006KT CAVOK 07/M12 Q1025 RMK BKN BKN080 MON LIB VIS MIN 9999
LIPK - Forli (civ/It-Af, Italy
Dati ricevuti: 25/10/2021 13:50
Sereno
Sereno
 Vento da varies
Vento: varies 6 km/h
Temperatura: 15°C
P.to Rugiada: 6°C
Umidità: 55%
Barometro: 1023 hPa
Summary: Sereno
Visibility: greater than 10 km
2021/10/25 11:50 LIPK 251150Z VRB03KT CAVOK 15/06 Q1023
 
LIMV - Giovi Pass, Italy
Dati ricevuti: 23/10/2021 19:55
Non Attivo
Patches of fog, Coperto
Patches of fog, Coperto
 Vento da varies
Vento: varies 0 km/h
Temperatura: 11°C
P.to Rugiada: 10°C
Umidità: 94%
Barometro: 1024 hPa
Summary: Patches of Fog
Clouds: Coperto
Visibility: 2 km
Cloud details: Coperto 91 m
2021/10/23 17:55 LIMV 231755Z /////KT 2000 0800N BCFG OVC003 11/10 Q1024 RMK OVC MON INVIS NC VAL N INVIS S FOSCHIA VIS MIN 0800N
LIPB - Bolzano(Civ/It-A, Italy
Dati ricevuti: 25/10/2021 13:50
Sereno
Sereno
 Vento da varies
Vento: varies 4 km/h
Temperatura: 12°C
P.to Rugiada: 4°C
Umidità: 58%
Barometro: 1024 hPa
Summary: Sereno
Visibility: greater than 10 km
2021/10/25 11:50 LIPB 251150Z VRB02KT CAVOK 12/04 Q1024
 
LIVD - Bolzano-Dobbiaco, Italy
Dati ricevuti: 25/10/2021 13:55

 
2021/10/25 11:55 LIVD 251155Z ///10KT CAVOK 07/01 Q1024 RMK BKN BKN170 VIS MIN 9999
LIVE - Bolzano-Passo Resia, Italy
Dati ricevuti: 25/10/2021 13:55
Sereno
Sereno
 Vento da SSO
Vento: SSO 9 km/h
Temperatura: 7°C
Temperatura del Vento: 6°C
P.to Rugiada: -1°C
Umidità: 57%
Barometro: 1022 hPa
Summary: Sereno
Visibility: greater than 10 km
2021/10/25 11:55 LIVE 251155Z 21005KT CAVOK 07/M01 Q1022 RMK BKN BKN180 VIS MIN 9999
 
LIMH - Aosta-Pian Rosa (mtn T, Italy
Dati ricevuti: 25/10/2021 10:55
Non Attivo
Parz. nuvoloso
Parz. nuvoloso
 Vento da S
Vento: S 33 km/h
Temperatura: -4°C
Temperatura del Vento: -12°C
P.to Rugiada: -8°C
Umidità: 74%
Barometro: 1028 hPa
Clouds: Parz. nuvoloso
Visibility: 10 km
Cloud details: Parz. nuvoloso 914 m
2021/10/25 08:55 LIMH 250855Z 17018KT 9999 SCT030 M04/M08 Q1028 RMK BKN MON CLD CIME VAL LIB VIS MIN 9999
LIMZ - Cuneo/Levaldigi, Italy
Dati ricevuti: 25/10/2021 14:20
Few Clouds
Few Clouds
 Vento da varies
Vento: varies 7 km/h
Temperatura: 15°C
P.to Rugiada: 7°C
Umidità: 59%
Barometro: 1023 hPa
Clouds: Few Clouds
Visibility: 10 km
Cloud details: Few Clouds 122 m
2021/10/25 12:20 LIMZ 251220Z AUTO VRB04KT 9999 FEW004/// 15/07 Q1023
 
LIMK - Torino-Bric Della Croce, Italy
Dati ricevuti: 25/10/2021 11:55
Non Attivo
Few Clouds
Few Clouds
 Vento da calm
Vento: Calma
Temperatura: 11°C
P.to Rugiada: 9°C
Umidità: 88%
Barometro: 1024 hPa
Clouds: Few Clouds
Visibility: 10 km
Cloud details: Few Clouds 1219 m
2021/10/25 09:55 LIMK 250955Z 00000KT 9999 FEW040 11/09 Q1024 RMK FEW VAL FOSCHIA VIS MIN 9999
LIMN - Novara-Cameri (it-Afb), Italy
Dati ricevuti: 25/10/2021 13:55
Sereno
Sereno
 Vento da varies
Vento: varies 0 km/h
Temperatura: 15°C
P.to Rugiada: 5°C
Umidità: 51%
Barometro: 1023 hPa
Summary: Sereno
Visibility: greater than 10 km
2021/10/25 11:55 LIMN 251155Z /////KT CAVOK 15/05 Q1023 RMK BKN BKN100 VIS MIN 9999 BLU
 
LIPA - Pordenone-Aviano (it/Us-Af, Italy
Dati ricevuti: 25/10/2021 13:55
Few Clouds
Few Clouds
 Vento da E
Vento: E 17 km/h
Temperatura: 15°C
P.to Rugiada: 2°C
Umidità: 42%
Barometro: 1024 hPa
Clouds: Few Clouds
Visibility: 10 km
Cloud details: Few Clouds 3048 m
2021/10/25 11:55 LIPA 251155Z 09009KT 9999 FEW100 15/02 Q1024 RMK BKN BKN200 VIS MIN 9999 WIND THR05 /////KT WIND THR23 /////KT A3024 BLU
LIPI - Udine-Rivolto (it-Afb), Italy
Dati ricevuti: 25/10/2021 13:55
Few Clouds
Few Clouds
 Vento da ENE
Vento: ENE 7 km/h
Temperatura: 16°C
P.to Rugiada: 1°C
Umidità: 36%
Barometro: 1024 hPa
Clouds: Few Clouds
Visibility: 10 km
Cloud details: Few Clouds 3048 m
2021/10/25 11:55 LIPI 251155Z 06004KT 9999 FEW100 16/01 Q1024 RMK BKN SCT200 VIS MIN 9999 WIND THR06 08005KT WIND THR24 11003KT BLU
 
LIVO - Udine-Tarvisio, Italy
Dati ricevuti: 25/10/2021 13:55
Few Clouds
Few Clouds
 Vento da ESE
Vento: ESE 9 km/h
Temperatura: 9°C
Temperatura del Vento: 7°C
P.to Rugiada: 4°C
Umidità: 71%
Barometro: 1024 hPa
Clouds: Few Clouds
Visibility: 10 km
Cloud details: Few Clouds 1524 m
2021/10/25 11:55 LIVO 251155Z 11005KT 9999 FEW050 09/04 Q1024 RMK BKN BKN180 VIS MIN 9999
LIPQ - Trieste-Ronchi Dei Legionari, Italy
Dati ricevuti: 25/10/2021 14:20
Sereno
Sereno
 Vento da ESE
Vento: ESE 17 km/h
Temperatura: 17°C
P.to Rugiada: -1°C
Umidità: 30%
Barometro: 1023 hPa
Clouds: Sereno
Visibility: 10 km
2021/10/25 12:20 LIPQ 251220Z AUTO 12009KT 9999 NCD 17/M01 Q1023
 
LIVT - Trieste, Italy
Dati ricevuti: 25/10/2021 13:55
Sereno
Sereno
 Vento da NE
Vento: NE 13 km/h
Temperatura: 16°C
P.to Rugiada: 1°C
Umidità: 36%
Barometro: 1023 hPa
Summary: Sereno
Visibility: greater than 10 km
2021/10/25 11:55 LIVT 251155Z 05007KT CAVOK 16/01 Q1023 RMK BKN BKN200 QUK 3 QUL 2 NE VIS MAR 20 KM VIS MIN 9999
LIRQ - Firenze/Peretola, Italy
Dati ricevuti: 25/10/2021 14:20
Sereno
Sereno
 Vento da N
Vento: N 15 km/h
Temperatura: 19°C
P.to Rugiada: 6°C
Umidità: 43%
Barometro: 1020 hPa
Summary: Sereno
Visibility: greater than 10 km
2021/10/25 12:20 LIRQ 251220Z 35008KT 310V020 CAVOK 19/06 Q1020
 
LIPK - Forli (civ/It-Af, Italy
Dati ricevuti: 25/10/2021 13:50
Sereno
Sereno
 Vento da varies
Vento: varies 6 km/h
Temperatura: 15°C
P.to Rugiada: 6°C
Umidità: 55%
Barometro: 1023 hPa
Summary: Sereno
Visibility: greater than 10 km
2021/10/25 11:50 LIPK 251150Z VRB03KT CAVOK 15/06 Q1023
LIRS - Grosseto (it-Afb, Italy
Dati ricevuti: 25/10/2021 13:55
Sereno
Sereno
 Vento da varies
Vento: varies 4 km/h
Temperatura: 20°C
P.to Rugiada: 8°C
Umidità: 46%
Barometro: 1019 hPa
Summary: Sereno
Visibility: greater than 10 km
2021/10/25 11:55 LIRS 251155Z VRB02KT CAVOK 20/08 Q1019
 
LIRP - Pisa (civ/It-Afb, Italy
Dati ricevuti: 25/10/2021 14:15
Sereno
Sereno
 Vento da E
Vento: E 13 km/h
Temperatura: 19°C
P.to Rugiada: 4°C
Umidità: 37%
Barometro: 1020 hPa
Summary: Sereno
Visibility: greater than 10 km
2021/10/25 12:15 LIRP 251215Z 10007KT CAVOK 19/04 Q1020 NOSIG
LIVF - Frontone, Italy
Dati ricevuti: 25/10/2021 08:55
Non Attivo
Sereno
Sereno
 Vento da SE
Vento: SE 6 km/h
Temperatura: 7°C
P.to Rugiada: 6°C
Umidità: 93%
Barometro: 1021 hPa
Summary: Sereno
Visibility: greater than 10 km
2021/10/25 06:55 LIVF 250655Z 14003KT CAVOK 07/06 Q1021 RMK BKN SCT120 SCT200 MON LIB VAL NW NEBBIA NC VIS MIN 9999
 
LIPC - Cervia (it-Afb), Italy
Dati ricevuti: 25/10/2021 13:55
Sereno
Sereno
 Vento da NNO
Vento: NNO 7 km/h
Temperatura: 14°C
P.to Rugiada: 8°C
Umidità: 67%
Barometro: 1023 hPa
Summary: Sereno
Visibility: greater than 10 km
2021/10/25 11:55 LIPC 251155Z 34004KT CAVOK 14/08 Q1023
LIPR - Rimini (civ/It-A, Italy
Dati ricevuti: 25/10/2021 14:20
Sereno
Sereno
 Vento da NNO
Vento: NNO 11 km/h
Temperatura: 15°C
P.to Rugiada: 9°C
Umidità: 68%
Barometro: 1023 hPa
Summary: Sereno
Visibility: greater than 10 km
2021/10/25 12:20 LIPR 251220Z 34006KT 310V030 CAVOK 15/09 Q1023
 
LIRX - Monte Calamita, Italy
Dati ricevuti: 25/10/2021 13:55
Sereno
Sereno
 Vento da NE
Vento: NE 11 km/h
Temperatura: 17°C
P.to Rugiada: 6°C
Umidità: 49%
Barometro: 1018 hPa
Summary: Sereno
Visibility: greater than 10 km
2021/10/25 11:55 LIRX 251155Z 04006KT CAVOK 17/06 Q1018 RMK OVC OVC240 VIS MIN 9999 VIS MAR 20 KM
LIVM - Punta Marina/Rav, Italy
Dati ricevuti: 25/10/2021 13:55
Parz. nuvoloso
Parz. nuvoloso
 Vento da N
Vento: N 7 km/h
Temperatura: 14°C
P.to Rugiada: 7°C
Umidità: 63%
Barometro: 1024 hPa
Clouds: Parz. nuvoloso
Visibility: 10 km
Cloud details: Few Clouds 610 m
Parz. nuvoloso 762 m
2021/10/25 11:55 LIVM 251155Z 01004KT 9999 FEW020 SCT025 14/07 Q1024 RMK BKN BKN180 QUK 2 QUL 1 E VIS MAR 12 KM VIS MIN 9999